createdAt,value
2022-09-20T00:01:10.975Z,1.77
2022-09-20T00:03:39.667Z,1.57
2022-09-20T00:06:09.098Z,1.45
2022-09-20T00:08:35.892Z,1.67
2022-09-20T00:11:04.687Z,1.65
2022-09-20T00:13:31.485Z,1.33
2022-09-20T00:15:58.818Z,1.70
2022-09-20T00:18:26.371Z,1.30
2022-09-20T00:20:53.314Z,1.50
2022-09-20T00:23:20.308Z,1.55
2022-09-20T00:25:55.956Z,1.52
2022-09-20T00:28:23.199Z,1.60
2022-09-20T00:30:50.903Z,1.50
2022-09-20T00:33:17.633Z,1.77
2022-09-20T00:35:45.474Z,1.20
2022-09-20T00:38:16.406Z,1.40
2022-09-20T00:40:44.563Z,1.23
2022-09-20T00:43:16.038Z,1.20
2022-09-20T00:45:46.530Z,1.42
2022-09-20T00:48:27.664Z,1.75
2022-09-20T00:51:08.952Z,1.25
2022-09-20T00:53:44.436Z,1.40
2022-09-20T00:56:25.578Z,1.40
2022-09-20T00:58:59.315Z,1.40
2022-09-20T01:01:26.482Z,1.65
2022-09-20T01:03:54.473Z,1.80
2022-09-20T01:06:21.331Z,1.50
2022-09-20T01:08:51.279Z,1.33
2022-09-20T01:11:18.383Z,1.55
2022-09-20T01:13:45.194Z,1.63
2022-09-20T01:16:14.531Z,1.50
2022-09-20T01:18:42.911Z,1.80
2022-09-20T01:21:10.562Z,1.08
2022-09-20T01:23:56.027Z,1.17
2022-09-20T01:26:58.246Z,1.63
2022-09-20T01:29:40.092Z,1.40
2022-09-20T01:32:16.446Z,1.67
2022-09-20T01:34:50.442Z,1.23
2022-09-20T01:37:28.063Z,1.50
2022-09-20T01:40:12.204Z,1.42
2022-09-20T01:42:56.426Z,1.48
2022-09-20T01:45:28.574Z,1.20
2022-09-20T01:48:10.202Z,1.25
2022-09-20T01:50:46.395Z,1.15
2022-09-20T01:53:48.489Z,1.65
2022-09-20T01:56:32.439Z,1.10
2022-09-20T01:59:30.634Z,1.27
2022-09-20T02:02:19.439Z,1.33
2022-09-20T02:05:09.306Z,1.20
2022-09-20T02:07:57.624Z,1.25
2022-09-20T02:10:47.090Z,1.25
2022-09-20T02:13:29.827Z,1.17
2022-09-20T02:16:28.866Z,1.92
2022-09-20T02:19:10.267Z,1.08
2022-09-20T02:21:51.327Z,1.52
2022-09-20T02:24:55.719Z,1.75
2022-09-20T02:27:31.304Z,1.30
2022-09-20T02:30:13.820Z,1.48
2022-09-20T02:33:06.867Z,1.38
2022-09-20T02:35:54.763Z,1.20
2022-09-20T02:38:46.339Z,1.33
2022-09-20T02:41:40.722Z,1.30
2022-09-20T02:44:29.715Z,1.80
2022-09-20T02:47:06.191Z,1.90
2022-09-20T02:49:51.912Z,1.80
2022-09-20T02:52:54.717Z,1.98
2022-09-20T02:55:45.109Z,1.20
2022-09-20T02:59:00.061Z,1.52
2022-09-20T03:01:38.355Z,2.20
2022-09-20T03:04:10.996Z,2.00
2022-09-20T03:06:45.536Z,1.73
2022-09-20T03:09:31.827Z,1.45
2022-09-20T03:12:29.208Z,2.03
2022-09-20T03:15:26.571Z,1.63
2022-09-20T03:18:11.492Z,1.70
2022-09-20T03:21:25.209Z,1.60
2022-09-20T03:24:19.084Z,1.70
2022-09-20T03:26:57.223Z,1.52
2022-09-20T03:29:43.506Z,1.90
2022-09-20T03:32:36.057Z,1.80
2022-09-20T03:35:36.524Z,1.98
2022-09-20T03:38:18.755Z,1.70
2022-09-20T03:41:17.276Z,1.50
2022-09-20T03:43:43.844Z,1.80
2022-09-20T03:46:18.524Z,2.00
2022-09-20T03:49:16.390Z,1.80
2022-09-20T03:52:29.768Z,1.70
2022-09-20T03:55:23.975Z,1.60
2022-09-20T03:58:24.529Z,1.88
2022-09-20T04:01:05.492Z,1.80
2022-09-20T04:04:23.102Z,1.90
2022-09-20T04:07:01.510Z,1.80
2022-09-20T04:09:40.303Z,1.90
2022-09-20T04:12:20.916Z,2.03
2022-09-20T04:15:16.009Z,2.10
2022-09-20T04:18:27.163Z,2.22
2022-09-20T04:21:26.950Z,2.08
2022-09-20T04:24:21.301Z,2.40
2022-09-20T04:26:55.333Z,2.10
2022-09-20T04:29:44.620Z,2.60
2022-09-20T04:32:19.390Z,2.10
2022-09-20T04:35:24.619Z,1.92
2022-09-20T04:37:52.761Z,2.17
2022-09-20T04:40:51.663Z,2.65
2022-09-20T04:43:27.070Z,2.45
2022-09-20T04:46:32.890Z,2.58
2022-09-20T04:49:13.255Z,2.70
2022-09-20T04:51:59.967Z,2.33
2022-09-20T04:54:54.390Z,2.45
2022-09-20T04:57:54.855Z,2.30
2022-09-20T05:00:32.590Z,2.38
2022-09-20T05:03:32.087Z,2.45
2022-09-20T05:06:11.230Z,2.33
2022-09-20T05:09:09.331Z,2.95
2022-09-20T05:11:47.153Z,2.38
2022-09-20T05:14:37.218Z,2.53
2022-09-20T05:17:31.372Z,2.90
2022-09-20T05:20:14.295Z,2.78
2022-09-20T05:23:10.872Z,2.60
2022-09-20T05:26:17.865Z,2.67
2022-09-20T05:29:02.622Z,2.22
2022-09-20T05:31:51.500Z,2.60
2022-09-20T05:34:23.915Z,2.70
2022-09-20T05:37:23.444Z,2.67
2022-09-20T05:39:59.263Z,2.90
2022-09-20T05:42:42.812Z,3.00
2022-09-20T05:45:31.219Z,2.67
2022-09-20T05:48:13.696Z,2.63
2022-09-20T05:50:49.236Z,2.47
2022-09-20T05:53:34.793Z,2.17
2022-09-20T05:56:11.660Z,2.78
2022-09-20T05:59:19.371Z,2.80
2022-09-20T06:02:17.720Z,1.95
2022-09-20T06:04:52.817Z,2.55
2022-09-20T06:07:29.992Z,2.33
2022-09-20T06:10:13.673Z,2.42
2022-09-20T06:12:57.332Z,2.67
2022-09-20T06:15:54.698Z,2.20
2022-09-20T06:18:45.547Z,2.90
2022-09-20T06:21:14.909Z,3.95
2022-09-20T06:23:41.640Z,3.30
2022-09-20T06:26:17.243Z,3.28
2022-09-20T06:28:55.213Z,2.70
2022-09-20T06:31:24.401Z,2.85
2022-09-20T06:34:03.463Z,3.15
2022-09-20T06:37:10.770Z,2.80
2022-09-20T06:40:01.816Z,3.25
2022-09-20T06:42:29.516Z,3.90
2022-09-20T06:44:56.412Z,3.78
2022-09-20T06:47:24.183Z,3.50
2022-09-20T06:49:50.780Z,3.50
2022-09-20T06:52:20.387Z,3.55
2022-09-20T06:54:49.919Z,3.45
2022-09-20T06:57:23.695Z,2.97
2022-09-20T06:59:50.326Z,2.75
2022-09-20T07:02:16.999Z,2.70
2022-09-20T07:04:44.549Z,2.78
2022-09-20T07:07:16.606Z,2.75
2022-09-20T07:09:43.220Z,4.55
2022-09-20T07:12:11.974Z,2.88
2022-09-20T07:14:39.091Z,3.80
2022-09-20T07:17:06.533Z,3.53
2022-09-20T07:19:33.862Z,2.90
2022-09-20T07:22:00.479Z,2.80
2022-09-20T07:24:27.159Z,2.78
2022-09-20T07:27:02.695Z,3.10
2022-09-20T07:29:32.771Z,2.65
2022-09-20T07:31:59.965Z,2.47
2022-09-20T07:34:27.299Z,3.05
2022-09-20T07:36:53.998Z,3.50
2022-09-20T07:39:20.773Z,2.60
2022-09-20T07:41:51.157Z,2.30
2022-09-20T07:44:21.948Z,2.53
2022-09-20T07:47:00.264Z,2.70
2022-09-20T07:49:30.245Z,2.60
2022-09-20T07:51:57.740Z,3.00
2022-09-20T07:54:24.680Z,2.78
2022-09-20T07:56:51.299Z,2.70
2022-09-20T07:59:18.010Z,2.60
2022-09-20T08:01:44.655Z,1.83
2022-09-20T08:04:11.745Z,1.42
2022-09-20T08:06:40.203Z,1.27
2022-09-20T08:09:10.942Z,1.30
2022-09-20T08:11:39.367Z,1.15
2022-09-20T08:14:08.844Z,0.95
2022-09-20T08:16:44.568Z,0.90
2022-09-20T08:19:22.727Z,0.60
2022-09-20T08:21:52.563Z,1.00
2022-09-20T08:24:19.201Z,0.70
2022-09-20T08:26:46.135Z,0.70
2022-09-20T08:29:14.902Z,1.00
2022-09-20T08:31:42.376Z,1.00
2022-09-20T08:34:12.094Z,1.00
2022-09-20T08:36:41.183Z,1.00
2022-09-20T08:42:09.089Z,0.98
2022-09-20T08:44:57.832Z,1.05
2022-09-20T08:47:35.646Z,0.90
2022-09-20T08:50:10.122Z,0.73
2022-09-20T08:52:39.988Z,1.13
2022-09-20T08:55:22.943Z,1.10
2022-09-20T08:57:53.304Z,1.10
2022-09-20T09:00:33.699Z,1.15
2022-09-20T09:03:07.060Z,0.90
2022-09-20T09:05:35.830Z,0.98
2022-09-20T09:08:08.897Z,0.75
2022-09-20T09:10:43.084Z,1.13
2022-09-20T09:13:18.914Z,0.90
2022-09-20T09:15:49.197Z,1.20
2022-09-20T09:18:15.885Z,1.10
2022-09-20T09:20:46.104Z,1.05
2022-09-20T09:23:26.461Z,1.55
2022-09-20T09:25:54.980Z,1.30
2022-09-20T09:28:29.221Z,0.90
2022-09-20T09:31:22.296Z,1.30
2022-09-20T09:33:49.311Z,1.20
2022-09-20T09:36:20.395Z,1.42
2022-09-20T09:38:47.567Z,1.05
2022-09-20T09:41:35.225Z,1.00
2022-09-20T09:44:06.648Z,0.80
2022-09-20T09:46:36.167Z,1.27
2022-09-20T09:49:18.276Z,1.30
2022-09-20T09:52:03.718Z,1.00
2022-09-20T09:54:35.969Z,1.60
2022-09-20T09:59:54.856Z,0.82
2022-09-20T10:02:40.997Z,1.55
2022-09-20T10:05:24.626Z,0.98
2022-09-20T10:08:10.968Z,0.80
2022-09-20T10:11:10.174Z,1.10
2022-09-20T10:14:20.931Z,1.20
2022-09-20T10:17:15.047Z,1.00
2022-09-20T10:20:05.477Z,0.90
2022-09-20T10:23:26.537Z,0.70
2022-09-20T10:25:51.757Z,0.50
2022-09-20T10:28:28.815Z,0.82
2022-09-20T10:31:32.341Z,0.70
2022-09-20T10:34:20.128Z,0.82
2022-09-20T10:36:52.757Z,0.55
2022-09-20T10:39:36.315Z,0.73
2022-09-20T10:42:57.454Z,0.50
2022-09-20T10:49:16.599Z,0.85
2022-09-20T10:52:08.268Z,0.88
2022-09-20T10:55:03.784Z,0.98
2022-09-20T10:58:07.621Z,0.60
2022-09-20T11:00:56.133Z,0.80
2022-09-20T11:03:35.242Z,0.60
2022-09-20T11:06:19.737Z,0.80
2022-09-20T11:08:51.548Z,0.90
2022-09-20T11:11:34.652Z,1.00
2022-09-20T11:14:12.569Z,1.27
2022-09-20T11:17:00.224Z,1.00
2022-09-20T11:19:35.016Z,1.10
2022-09-20T11:22:21.407Z,0.98
2022-09-20T11:25:02.869Z,0.82
2022-09-20T11:27:39.765Z,1.45
2022-09-20T11:30:20.944Z,0.90
2022-09-20T11:33:02.415Z,1.05
2022-09-20T11:35:31.431Z,1.00
2022-09-20T11:38:02.952Z,1.27
2022-09-20T11:40:37.580Z,0.85
2022-09-20T11:43:07.209Z,1.33
2022-09-20T11:45:35.119Z,1.33
2022-09-20T11:48:12.771Z,1.30
2022-09-20T11:50:51.151Z,1.00
2022-09-20T11:53:37.198Z,1.13
2022-09-20T11:56:19.940Z,1.15
2022-09-20T11:58:59.010Z,1.08
2022-09-20T12:01:41.278Z,0.93
2022-09-20T12:04:39.023Z,1.05
2022-09-20T12:07:25.792Z,1.00
2022-09-20T12:10:02.620Z,0.90
2022-09-20T12:12:41.718Z,0.90
2022-09-20T12:15:23.213Z,1.00
2022-09-20T12:17:49.917Z,0.60
2022-09-20T12:20:44.865Z,0.75
2022-09-20T12:23:42.770Z,0.95
2022-09-20T12:26:36.808Z,1.23
2022-09-20T12:29:23.363Z,1.17
2022-09-20T12:31:56.417Z,0.80
2022-09-20T12:34:26.067Z,1.25
2022-09-20T12:36:55.454Z,0.75
2022-09-20T12:39:29.458Z,0.80
2022-09-20T12:42:30.927Z,0.80
2022-09-20T12:45:15.520Z,1.08
2022-09-20T12:47:53.212Z,1.17
2022-09-20T12:50:41.052Z,0.90
2022-09-20T12:53:16.781Z,1.30
2022-09-20T12:56:16.349Z,0.98
2022-09-20T12:58:55.848Z,0.88
2022-09-20T13:01:22.530Z,0.77
2022-09-20T13:03:50.487Z,1.02
2022-09-20T13:06:20.003Z,0.77
2022-09-20T13:09:01.808Z,0.95
2022-09-20T13:11:45.729Z,0.90
2022-09-20T13:14:18.875Z,1.10
2022-09-20T13:17:00.610Z,1.15
2022-09-20T13:19:38.942Z,1.10
2022-09-20T13:22:19.036Z,1.17
2022-09-20T13:24:48.731Z,0.95
2022-09-20T13:27:45.118Z,1.25
2022-09-20T13:30:22.186Z,1.50
2022-09-20T13:32:51.356Z,1.25
2022-09-20T13:35:29.388Z,1.48
2022-09-20T13:38:01.974Z,1.13
2022-09-20T13:40:33.647Z,1.17
2022-09-20T13:43:22.718Z,1.10
2022-09-20T13:45:56.220Z,1.67
2022-09-20T13:48:27.494Z,3.45
2022-09-20T13:50:55.815Z,3.83
2022-09-20T13:53:40.649Z,2.72
2022-09-20T13:56:20.175Z,1.73
2022-09-20T13:58:48.159Z,1.55
2022-09-20T14:01:35.428Z,1.00
2022-09-20T14:04:29.436Z,1.05
2022-09-20T14:06:58.368Z,1.02
2022-09-20T14:09:32.461Z,1.60
2022-09-20T14:12:04.758Z,1.42
2022-09-20T14:14:32.997Z,1.00
2022-09-20T14:17:01.358Z,1.13
2022-09-20T14:19:42.639Z,1.48
2022-09-20T14:22:18.937Z,1.27
2022-09-20T14:25:18.722Z,0.70
2022-09-20T14:27:45.846Z,1.08
2022-09-20T14:30:36.446Z,0.98
2022-09-20T14:33:06.591Z,1.05
2022-09-20T14:35:33.501Z,1.20
2022-09-20T14:38:08.461Z,1.13
2022-09-20T14:40:48.719Z,1.00
2022-09-20T14:43:29.550Z,1.35
2022-09-20T14:46:06.978Z,1.05
2022-09-20T14:48:42.507Z,1.00
2022-09-20T14:51:31.492Z,1.38
2022-09-20T14:54:07.161Z,0.98
2022-09-20T14:56:37.522Z,1.10
2022-09-20T14:59:19.221Z,0.88
2022-09-20T15:01:57.229Z,1.02
2022-09-20T15:04:26.814Z,1.10
2022-09-20T15:06:53.928Z,1.17
2022-09-20T15:09:21.723Z,1.15
2022-09-20T15:12:00.177Z,1.10
2022-09-20T15:14:26.788Z,1.23
2022-09-20T15:16:53.899Z,1.42
2022-09-20T15:19:20.550Z,1.33
2022-09-20T15:21:47.190Z,0.80
2022-09-20T15:24:14.528Z,1.00
2022-09-20T15:26:41.179Z,0.98
2022-09-20T15:29:10.709Z,1.20
2022-09-20T15:31:37.341Z,1.08
2022-09-20T15:34:06.958Z,1.00
2022-09-20T15:36:33.748Z,1.10
2022-09-20T15:39:00.491Z,1.00
2022-09-20T15:41:31.185Z,0.60
2022-09-20T15:43:59.082Z,1.05
2022-09-20T15:46:29.135Z,1.10
2022-09-20T15:48:56.740Z,1.10
2022-09-20T15:51:23.457Z,1.33
2022-09-20T15:54:06.173Z,1.10
2022-09-20T15:56:35.191Z,0.90
2022-09-20T15:59:05.000Z,1.00
2022-09-20T16:01:35.418Z,0.85
2022-09-20T16:04:10.216Z,1.10
2022-09-20T16:06:38.430Z,0.90
2022-09-20T16:09:06.195Z,1.10
2022-09-20T16:11:32.963Z,0.75
2022-09-20T16:14:00.440Z,0.80
2022-09-20T16:16:29.418Z,0.75
2022-09-20T16:19:14.559Z,0.88
2022-09-20T16:21:42.639Z,0.70
2022-09-20T16:24:10.129Z,0.70
2022-09-20T16:26:37.587Z,0.70
2022-09-20T16:29:05.021Z,1.05
2022-09-20T16:31:41.308Z,1.05
2022-09-20T16:34:19.160Z,0.75
2022-09-20T16:36:54.119Z,0.82
2022-09-20T16:39:26.117Z,1.10
2022-09-20T16:41:53.483Z,1.13
2022-09-20T16:44:20.260Z,1.25
2022-09-20T16:46:47.400Z,1.88
2022-09-20T16:49:15.307Z,1.00
2022-09-20T16:51:43.228Z,1.20
2022-09-20T16:54:12.468Z,1.02
2022-09-20T16:56:50.317Z,1.00
2022-09-20T16:59:20.675Z,1.30
2022-09-20T17:01:48.435Z,0.80
2022-09-20T17:04:18.238Z,0.95
2022-09-20T17:06:45.802Z,1.08
2022-09-20T17:09:15.627Z,1.27
2022-09-20T17:11:45.818Z,1.15
2022-09-20T17:14:13.459Z,1.13
2022-09-20T17:16:41.969Z,1.10
2022-09-20T17:19:12.847Z,0.80
2022-09-20T17:21:43.625Z,0.73
2022-09-20T17:24:10.591Z,1.00
2022-09-20T17:26:44.320Z,1.48
2022-09-20T17:29:17.314Z,1.05
2022-09-20T17:31:50.028Z,0.93
2022-09-20T17:34:21.703Z,1.10
2022-09-20T17:36:50.394Z,1.05
2022-09-20T17:39:17.299Z,1.00
2022-09-20T17:41:46.249Z,0.90
2022-09-20T17:44:13.949Z,1.00
2022-09-20T17:46:43.027Z,1.38
2022-09-20T17:49:11.978Z,1.17
2022-09-20T17:51:41.113Z,1.00
2022-09-20T17:54:08.909Z,0.85
2022-09-20T17:56:35.724Z,1.20
2022-09-20T17:59:04.167Z,1.20
2022-09-20T18:01:32.838Z,1.42
2022-09-20T18:04:01.585Z,1.13
2022-09-20T18:06:44.170Z,0.95
2022-09-20T18:11:41.449Z,1.20
2022-09-20T18:14:13.317Z,1.80
2022-09-20T18:16:40.380Z,1.90
2022-09-20T18:19:08.155Z,2.33
2022-09-20T18:21:36.365Z,3.00
2022-09-20T18:24:07.294Z,3.88
2022-09-20T18:26:34.817Z,3.88
2022-09-20T18:29:06.786Z,4.25
2022-09-20T18:31:52.141Z,3.95
2022-09-20T18:34:23.620Z,3.80
2022-09-20T18:36:52.845Z,2.95
2022-09-20T18:39:24.068Z,2.78
2022-09-20T18:41:52.941Z,3.00
2022-09-20T18:44:20.773Z,2.83
2022-09-20T18:46:49.351Z,3.33
2022-09-20T18:49:16.853Z,3.97
2022-09-20T18:51:44.510Z,3.83
2022-09-20T18:54:11.974Z,4.30
2022-09-20T18:56:41.805Z,4.55
2022-09-20T18:59:14.269Z,5.40
2022-09-20T19:01:49.973Z,5.47
2022-09-20T19:04:47.208Z,5.30
2022-09-20T19:07:32.853Z,5.72
2022-09-20T19:10:36.040Z,5.72
2022-09-20T19:13:17.972Z,4.95
2022-09-20T19:16:15.391Z,5.30
2022-09-20T19:19:07.403Z,5.13
2022-09-20T19:21:52.179Z,5.13
2022-09-20T19:24:24.982Z,5.45
2022-09-20T19:26:51.876Z,6.05
2022-09-20T19:29:24.782Z,6.05
2022-09-20T19:31:55.382Z,5.10
2022-09-20T19:34:25.642Z,6.15
2022-09-20T19:37:19.016Z,11.88
2022-09-20T19:39:57.655Z,12.00
2022-09-20T19:42:54.708Z,15.27
2022-09-20T19:45:33.155Z,19.00
2022-09-20T19:48:07.178Z,23.75
2022-09-20T19:50:50.571Z,21.92
2022-09-20T19:53:20.327Z,22.50
2022-09-20T19:55:52.154Z,20.15
2022-09-20T19:58:19.299Z,18.23
2022-09-20T20:00:47.153Z,14.77
2022-09-20T20:03:15.624Z,15.30
2022-09-20T20:05:52.095Z,12.30
2022-09-20T20:08:23.843Z,8.90
2022-09-20T20:11:18.130Z,7.63
2022-09-20T20:14:03.144Z,7.00
2022-09-20T20:17:05.478Z,5.20
2022-09-20T20:19:38.742Z,4.80
2022-09-20T20:22:20.300Z,4.72
2022-09-20T20:24:51.705Z,4.85
2022-09-20T20:27:19.623Z,4.10
2022-09-20T20:29:47.047Z,3.65
2022-09-20T20:32:15.085Z,3.03
2022-09-20T20:34:42.081Z,2.53
2022-09-20T20:37:09.015Z,1.67
2022-09-20T20:39:35.782Z,2.38
2022-09-20T20:42:03.857Z,1.77
2022-09-20T20:44:31.402Z,2.25
2022-09-20T20:46:58.120Z,1.83
2022-09-20T20:49:24.820Z,2.00
2022-09-20T20:51:51.578Z,1.88
2022-09-20T20:54:18.427Z,2.10
2022-09-20T20:56:45.130Z,1.80
2022-09-20T20:59:11.800Z,2.85
2022-09-20T21:01:44.956Z,6.85
2022-09-20T21:04:12.934Z,6.75
2022-09-20T21:06:41.371Z,6.80
2022-09-20T21:09:09.703Z,5.55
2022-09-20T21:11:38.907Z,6.32
2022-09-20T21:14:07.186Z,5.65
2022-09-20T21:16:36.556Z,5.07
2022-09-20T21:19:04.582Z,5.45
2022-09-20T21:21:36.647Z,5.10
2022-09-20T21:24:05.900Z,5.07
2022-09-20T21:26:34.435Z,4.80
2022-09-20T21:29:03.678Z,4.80
2022-09-20T21:31:33.240Z,4.10
2022-09-20T21:34:00.270Z,4.15
2022-09-20T21:36:28.874Z,3.95
2022-09-20T21:38:55.802Z,4.00
2022-09-20T21:41:25.054Z,3.78
2022-09-20T21:43:57.043Z,4.43
2022-09-20T21:46:29.102Z,3.67
2022-09-20T21:49:01.380Z,4.20
2022-09-20T21:51:31.420Z,3.72
2022-09-20T21:54:01.281Z,3.60
2022-09-20T21:56:31.121Z,3.65
2022-09-20T21:58:58.513Z,3.50
2022-09-20T22:01:27.175Z,3.33
2022-09-20T22:03:57.362Z,4.20
2022-09-20T22:06:30.922Z,3.70
2022-09-20T22:09:01.112Z,4.35
2022-09-20T22:11:31.060Z,4.07
2022-09-20T22:13:59.082Z,4.10
2022-09-20T22:16:28.783Z,3.80
2022-09-20T22:18:56.209Z,3.45
2022-09-20T22:21:31.827Z,3.33
2022-09-20T22:24:01.463Z,3.13
2022-09-20T22:26:35.014Z,2.88
2022-09-20T22:29:03.082Z,2.58
2022-09-20T22:31:32.185Z,2.33
2022-09-20T22:34:01.316Z,2.67
2022-09-20T22:36:30.742Z,2.40
2022-09-20T22:38:57.532Z,2.20
2022-09-20T22:41:24.914Z,2.38
2022-09-20T22:43:51.976Z,2.80
2022-09-20T22:46:21.737Z,2.65
2022-09-20T22:48:49.405Z,2.67
2022-09-20T22:51:19.187Z,2.72
2022-09-20T22:53:47.485Z,2.97
2022-09-20T22:56:19.234Z,2.75
2022-09-20T22:58:57.313Z,2.60
2022-09-20T23:01:29.346Z,2.80
2022-09-20T23:04:23.421Z,3.53
2022-09-20T23:06:54.985Z,3.50
2022-09-20T23:09:25.225Z,3.08
2022-09-20T23:11:52.258Z,3.47
2022-09-20T23:14:21.883Z,4.03
2022-09-20T23:16:49.423Z,3.67
2022-09-20T23:19:17.312Z,3.15
2022-09-20T23:21:44.922Z,3.45
2022-09-20T23:24:16.565Z,3.70
2022-09-20T23:26:44.321Z,3.37
2022-09-20T23:29:13.657Z,3.60
2022-09-20T23:31:45.873Z,3.28
2022-09-20T23:34:14.123Z,2.95
2022-09-20T23:36:41.635Z,3.10
2022-09-20T23:39:09.478Z,2.97
2022-09-20T23:41:37.069Z,3.10
2022-09-20T23:44:06.397Z,2.85
2022-09-20T23:46:33.982Z,3.30
2022-09-20T23:49:00.772Z,3.20
2022-09-20T23:51:28.957Z,2.70
2022-09-20T23:53:56.139Z,3.00
2022-09-20T23:56:23.900Z,3.08
2022-09-20T23:58:51.162Z,3.50
